ADDS METAR Data INFO
IDs: Format: Raw Decoded Include TAF

Data at: 0219 UTC 18 Jan 2018

PMDY 180156Z AUTO 16013KT 8SM OVC100 23/21 A2993 RMK AO2 RAB35E48 SLP135 P0000 T02280206
PMDY 180056Z AUTO 15010KT 8SM SCT095 BKN110 23/21 A2996 RMK AO2 SLP143 T02280206
PMDY 180041Z AUTO 13010KT 6SM BR FEW014 SCT120 23/21 A2995 RMK AO2
PMDY 172356Z AUTO 08015KT 8SM BKN017 BKN023 OVC090 21/19 A3000 RMK AO2 RAE32 PRESFR SLP160 P0008 60050 T02110194 10211 20183 58039
PMDY 172256Z AUTO 05011KT 6SM RA BR BKN026 OVC032 20/18 A3007 RMK AO2 RAB28 SLP183 P0000 T02000178
PMDY 172156Z AUTO 07014G18KT 10SM SCT021 BKN027 OVC047 20/18 A3011 RMK AO2 RAE52 SLP194 P0002 T02000178
PMDY 172102Z AUTO 04013KT 3SM -RA BR SCT009 OVC023 19/18 A3012 RMK AO2 P0001
PMDY 172056Z AUTO 05014G21KT 1 3/4SM RA BR SCT009 BKN023 OVC036 19/18 A3012 RMK AO2 SLP199 P0008 60040 T01890178 51021
PMDY 172048Z AUTO 05014G20KT 2 1/2SM -RA BR SCT009 BKN013 OVC023 19/18 A3012 RMK AO2 VIS 1 1/2V4 P0004
PMDY 172023Z AUTO 05018G23KT 4SM -RA BR BKN007 BKN017 OVC025 18/18 A3012 RMK AO2 CIG 006V011 P0002
PMDY 172006Z AUTO 04021G24KT 2 1/2SM -RA BR BKN007 BKN016 OVC050 19/18 A3012 RMK AO2 VIS 1 3/4V5 P0001
PMDY 171956Z AUTO 05016G25KT 3SM -RA BR SCT007 BKN036 OVC060 19/18 A3012 RMK AO2 PK WND 04027/1902 SLP198 P0009 T01890178
PMDY 171940Z AUTO 05018G23KT 1 3/4SM RA BR FEW009 BKN036 OVC050 19/18 A3011 RMK AO2 PK WND 04027/1902 P0005
PMDY 171921Z AUTO 05020G24KT 6SM -RA BR SCT008 SCT011 OVC038 19/18 A3010 RMK AO2 PK WND 04027/1902 P0001
PMDY 171856Z AUTO 04020G25KT 3SM -RA BR OVC008 18/17 A3008 RMK AO2 PK WND 04029/1838 SLP186 P0023 T01830172
PMDY 171831Z AUTO 04020G27KT 2SM RA BR BKN008 BKN015 OVC031 18/17 A3008 RMK AO2 PK WND 03028/1816 CIG 005V012 P0016
PMDY 171756Z AUTO 02016G22KT 9SM -RA SCT012 BKN023 OVC030 19/18 A3006 RMK AO2 RAB31 SLP178 P0002 60160 T01890178 10206 20183 56015
PMDY 171727Z AUTO 01014G17KT 9SM OVC011 19/18 A3005 RMK AO2
PMDY 171708Z AUTO VRB06KT 10SM BKN009 OVC028 19/18 A3006 RMK AO2 CIG 006V013
PMDY 171656Z AUTO 18005KT 9SM SCT007 OVC030 21/19 A3007 RMK AO2 RAE37 SLP184 P0001 T02060194
PMDY 171625Z AUTO 15019KT 9SM -RA SCT007 OVC030 21/19 A3005 RMK AO2 P0001
PMDY 171556Z AUTO 14010KT 4SM RA BR BKN007 OVC015 20/19 A3007 RMK AO2 CIG 005V011 SLP184 P0082 T02000194
PMDY 171550Z AUTO 14010KT 3SM RA BR BKN007 OVC012 20/19 A3008 RMK AO2 CIG 005V009 PRESFR P0079
PMDY 171456Z AUTO 13010KT 2SM +RA BR BKN005 BKN012 OVC018 19/19 A3010 RMK AO2 CIG 003V010 SLP192 P0075 60075 T01940189 53010
PMDY 171449Z AUTO 12011KT 1 3/4SM +RA BR BKN005 BKN010 OVC025 19/18 A3011 RMK AO2 P0060
PMDY 171431Z AUTO 13013KT 2 1/2SM RA BR OVC007 19/18 A3010 RMK AO2 CIG 005V010 P0026
PMDY 171414Z AUTO 13014KT 4SM RA BR BKN009 OVC013 19/18 A3011 RMK AO2 CIG 007V011 PRESRR P0004
PMDY 171356Z AUTO 11018KT 4SM -RA BR OVC013 19/18 A3006 RMK AO2 PK WND 12028/1332 RAB14 PRESRR SLP180 P0000 T01940178
PMDY 171256Z AUTO 11019KT 9SM OVC011 19/18 A3006 RMK AO2 PK WND 11027/1225 RAE08 SLP180 P0000 T01940178
PMDY 171247Z AUTO 11021KT 7SM BKN013 OVC018 19/17 A3007 RMK AO2 PK WND 11027/1225 RAE08 P0000
PMDY 171222Z AUTO 11020G24KT 9SM FEW010 BKN016 OVC029 19/17 A3008 RMK AO2 RAE08 P0000
PMDY 171156Z AUTO 10021G25KT 6SM -RA BR BKN010 BKN017 OVC024 19/17 A3010 RMK AO2 PK WND 11026/1059 SLP192 P0001 60001 70001 T01890172 10206 20189 58013
PMDY 171056Z AUTO 10020G25KT 7SM -RA FEW016 OVC028 19/16 A3013 RMK AO2 PK WND 09030/0957 RAB49 SLP204 P0000 T01940156 402110167
PMDY 170956Z AUTO 10022KT 10SM BKN027 OVC032 20/15 A3014 RMK AO2 PK WND 07033/0914 SLP205 T02000150
PMDY 170856Z AUTO 09025G32KT 10SM BKN023 OVC036 19/16 A3016 RMK AO2 PK WND 08032/0849 SLP213 T01940156 58016
PMDY 170756Z AUTO 09023G28KT 10SM SCT026 BKN031 OVC075 19/14 A3020 RMK AO2 PK WND 08028/0756 SLP225 T01940144
PMDY 170751Z AUTO 09020G26KT 10SM BKN028 OVC039 19/15 A3020 RMK AO2 PK WND 09028/0724
PMDY 170656Z AUTO 09021G26KT 10SM OVC032 20/14 A3021 RMK AO2 PK WND 08030/0645 SLP228 T02000144
PMDY 170556Z AUTO 09020G28KT 10SM OVC034 19/14 A3020 RMK AO2 PK WND 08028/0548 SLP227 T01940139 10206 20183 56006
PMDY 170456Z AUTO 09022G26KT 10SM OVC035 19/13 A3020 RMK AO2 PK WND 09026/0450 SLP227 T01940133
PMDY 170440Z AUTO 09019G25KT 10SM OVC033 19/13 A3021 RMK AO2 PK WND 08026/0426
PMDY 170356Z AUTO 09020G26KT 10SM BKN028 OVC037 19/13 A3020 RMK AO2 PK WND 09026/0353 SLP228 T01890133
PMDY 170256Z AUTO 08018KT 10SM FEW028 BKN038 OVC046 19/13 A3022 RMK AO2 SLP233 T01890133 55014
PMDY 170156Z AUTO 06016KT 10SM OVC038 19/13 A3022 RMK AO2 SLP232 T01940128
PMDY 170056Z AUTO 09014KT 10SM FEW043 OVC050 21/11 A3024 RMK AO2 SLP239 T02060111
PMDY 162356Z AUTO 08015KT 10SM FEW038 OVC055 21/12 A3026 RMK AO2 SLP247 T02060117 10211 20167 58010
PMDY 162256Z AUTO 09017KT 10SM BKN042 OVC055 21/12 A3029 RMK AO2 SLP257 T02110117
PMDY 162156Z AUTO 07014KT 10SM SCT038 BKN055 21/13 A3031 RMK AO2 SLP263 T02060128
PMDY 162056Z AUTO 08016KT 10SM OVC049 19/12 A3029 RMK AO2 SLP257 T01940117 51014
PMDY 161956Z AUTO 07012KT 10SM OVC047 18/11 A3028 RMK AO2 SLP252 T01830111
PMDY 161756Z AUTO 06010KT 10SM FEW042 BKN050 17/10 A3025 RMK AO2 SLP243 T01720100 10172 20167 53008
PMDY 161656Z AUTO 06010KT 10SM OVC048 17/10 A3024 RMK AO2 SLP239 T01720100
PMDY 161556Z AUTO 06011KT 10SM OVC044 17/11 A3023 RMK AO2 SLP236 T01720106
PMDY 161456Z AUTO 04010KT 10SM BKN046 17/09 A3023 RMK AO2 SLP235 T01670094 58002